Time;durP1;ratioP1;P1;durP2;ratioP2;P2;SDS_P1;SDS_P2;PMS_P1;PMS_P2;Temp;Humidity;BMP_temperature;BMP_pressure;BME280_temperature;BME280_humidity;BME280_pressure;Samples;Min_cycle;Max_cycle;Signal;HPM_P1;HPM_P2
2021/09/08 00:00:32;;;;;;;5.60;3.23;;;;;;;12.48;100.00;101804.75;5032375;28;20451;-73
2021/09/08 00:03:00;;;;;;;5.07;4.10;;;;;;;12.44;100.00;101804.53;5032604;28;20450;-73
2021/09/08 00:05:27;;;;;;;4.20;3.63;;;;;;;12.44;100.00;101799.09;5051725;22;20537;-68
2021/09/08 00:07:53;;;;;;;8.57;4.47;;;;;;;12.43;100.00;101802.88;5052558;28;20423;-69
2021/09/08 00:10:20;;;;;;;4.37;3.27;;;;;;;12.52;100.00;101795.75;5055137;28;20446;-69
2021/09/08 00:12:46;;;;;;;6.67;3.73;;;;;;;12.60;100.00;101794.31;5055714;28;20865;-68
2021/09/08 00:15:13;;;;;;;5.50;3.73;;;;;;;12.62;100.00;101795.69;5055665;28;20446;-69
2021/09/08 00:17:41;;;;;;;5.53;3.70;;;;;;;12.62;100.00;101798.41;5056093;28;20449;-68
2021/09/08 00:20:11;;;;;;;6.13;3.33;;;;;;;12.61;100.00;101790.50;5055978;28;20441;-68
2021/09/08 00:22:37;;;;;;;7.60;4.43;;;;;;;12.57;100.00;101793.00;5055960;28;20454;-69
2021/09/08 00:25:06;;;;;;;5.40;3.63;;;;;;;12.51;100.00;101796.84;5055822;28;20468;-67
2021/09/08 00:27:33;;;;;;;6.27;4.47;;;;;;;12.27;100.00;101791.31;5055772;28;20465;-69
2021/09/08 00:29:59;;;;;;;6.97;4.23;;;;;;;12.34;100.00;101786.38;5055458;28;20952;-69
2021/09/08 00:32:26;;;;;;;4.50;3.13;;;;;;;12.23;100.00;101798.41;5055704;28;20442;-69
2021/09/08 00:34:52;;;;;;;5.67;4.27;;;;;;;12.11;100.00;101795.22;5055393;28;20459;-68
2021/09/08 00:37:20;;;;;;;7.80;3.13;;;;;;;12.05;100.00;101801.78;5055615;28;20480;-69
2021/09/08 00:39:46;;;;;;;7.43;2.83;;;;;;;12.01;100.00;101796.09;5055339;28;20958;-68
2021/09/08 00:42:15;;;;;;;4.53;3.43;;;;;;;12.00;99.93;101799.13;5054855;28;20442;-69
2021/09/08 00:44:42;;;;;;;7.17;4.50;;;;;;;12.00;99.76;101794.50;5055456;28;20449;-69
2021/09/08 00:47:12;;;;;;;3.47;3.17;;;;;;;12.05;100.00;101796.38;5055408;28;20486;-68
2021/09/08 00:49:38;;;;;;;7.80;3.80;;;;;;;12.09;100.00;101794.72;5055609;28;20450;-69
2021/09/08 00:52:07;;;;;;;4.10;3.17;;;;;;;12.02;100.00;101800.44;5055445;28;20444;-69
2021/09/08 00:54:36;;;;;;;3.37;2.43;;;;;;;11.94;100.00;101795.59;5055355;28;20443;-68
2021/09/08 00:57:05;;;;;;;5.20;3.50;;;;;;;12.07;100.00;101794.16;5054745;28;20462;-68
2021/09/08 00:59:33;;;;;;;6.23;4.33;;;;;;;12.05;100.00;101796.38;5055252;28;20438;-69
2021/09/08 01:02:00;;;;;;;5.53;3.60;;;;;;;12.07;100.00;101794.97;5055192;28;20443;-69
2021/09/08 01:04:27;;;;;;;4.40;3.00;;;;;;;12.17;100.00;101788.66;5055149;28;20457;-69
2021/09/08 01:06:54;;;;;;;5.07;3.23;;;;;;;12.21;100.00;101789.72;5054686;28;20497;-69
2021/09/08 01:09:21;;;;;;;3.90;2.97;;;;;;;12.21;100.00;101791.63;5055063;28;20445;-69
2021/09/08 01:11:49;;;;;;;6.47;4.10;;;;;;;12.17;100.00;101788.66;5055015;28;20443;-69
2021/09/08 01:14:15;;;;;;;7.03;3.73;;;;;;;12.16;100.00;101784.31;5054936;28;20444;-69
2021/09/08 01:16:41;;;;;;;6.97;2.97;;;;;;;12.17;100.00;101791.38;5054849;28;20454;-69
2021/09/08 01:19:08;;;;;;;4.40;3.40;;;;;;;12.12;100.00;101785.97;5054977;28;20450;-69
2021/09/08 01:21:34;;;;;;;4.73;3.77;;;;;;;12.11;100.00;101790.59;5054477;28;20820;-69
2021/09/08 01:24:05;;;;;;;6.57;4.03;;;;;;;12.00;100.00;101789.06;5054471;28;20439;-68
2021/09/08 01:26:32;;;;;;;5.87;3.23;;;;;;;11.99;100.00;101790.13;5054643;28;20497;-68
2021/09/08 01:28:58;;;;;;;6.90;3.50;;;;;;;11.90;100.00;101791.00;5054683;28;20449;-69
2021/09/08 01:31:26;;;;;;;5.53;3.53;;;;;;;11.73;100.00;101783.19;5054576;28;20508;-68
2021/09/08 01:33:53;;;;;;;5.30;3.63;;;;;;;11.63;99.62;101784.84;5054834;28;20442;-69
2021/09/08 01:36:19;;;;;;;3.93;3.00;;;;;;;11.75;99.69;101783.72;5054456;28;20497;-68
2021/09/08 01:38:46;;;;;;;8.27;4.23;;;;;;;11.84;100.00;101774.75;5054447;28;20435;-68
2021/09/08 01:41:13;;;;;;;7.67;3.67;;;;;;;11.96;100.00;101788.00;5054387;28;20465;-68
2021/09/08 01:43:40;;;;;;;7.40;2.80;;;;;;;11.92;100.00;101786.94;5054355;28;20443;-69
2021/09/08 01:46:06;;;;;;;5.17;2.70;;;;;;;11.83;100.00;101785.91;5054273;28;20509;-70
2021/09/08 01:48:33;;;;;;;5.90;3.67;;;;;;;11.84;100.00;101785.59;5054206;28;20461;-69
2021/09/08 01:50:59;;;;;;;5.83;3.30;;;;;;;11.82;100.00;101784.22;5053896;28;20935;-70
2021/09/08 01:53:28;;;;;;;10.00;3.57;;;;;;;11.88;100.00;101780.44;5054175;28;20446;-69
2021/09/08 01:55:54;;;;;;;6.33;4.87;;;;;;;11.78;100.00;101778.56;5053964;28;20478;-68
2021/09/08 01:58:22;;;;;;;8.80;4.47;;;;;;;11.72;100.00;101779.66;5054080;28;20496;-70
2021/09/08 02:00:49;;;;;;;5.67;3.77;;;;;;;11.58;100.00;101786.78;5054337;28;20446;-69
2021/09/08 02:03:15;;;;;;;3.70;2.87;;;;;;;11.40;100.00;101784.69;5054057;28;20450;-68
2021/09/08 02:05:41;;;;;;;6.93;3.57;;;;;;;11.31;100.00;101777.13;5053680;28;20488;-68
2021/09/08 02:08:08;;;;;;;3.70;3.17;;;;;;;11.27;99.82;101780.66;5053985;28;20430;-70
2021/09/08 02:10:34;;;;;;;5.23;3.93;;;;;;;11.14;100.00;101776.63;5053945;28;20465;-68
2021/09/08 02:13:03;;;;;;;7.30;4.10;;;;;;;11.16;100.00;101777.19;5053632;28;20940;-68
2021/09/08 02:15:31;;;;;;;7.50;4.00;;;;;;;11.26;100.00;101788.00;5053615;28;20543;-68
2021/09/08 02:17:57;;;;;;;6.00;3.70;;;;;;;11.38;100.00;101790.41;5053727;28;20449;-68
2021/09/08 02:20:24;;;;;;;5.20;2.97;;;;;;;11.40;100.00;101781.97;5053374;28;20936;-69
2021/09/08 02:22:50;;;;;;;5.60;3.93;;;;;;;11.52;100.00;101785.19;5053644;28;20469;-69
2021/09/08 02:25:17;;;;;;;7.47;4.30;;;;;;;11.46;100.00;101784.38;5053543;28;20512;-69
2021/09/08 02:27:44;;;;;;;8.03;4.30;;;;;;;11.41;100.00;101781.69;5053519;28;20531;-72
2021/09/08 02:30:11;;;;;;;6.10;3.57;;;;;;;11.42;100.00;101783.34;5053566;28;20446;-68
2021/09/08 02:32:39;;;;;;;6.50;3.23;;;;;;;11.37;100.00;101775.19;5053083;28;20453;-69
2021/09/08 02:35:08;;;;;;;4.30;2.83;;;;;;;11.45;100.00;101779.25;5053354;28;20459;-70
2021/09/08 02:37:34;;;;;;;3.43;3.13;;;;;;;11.40;100.00;101779.28;5053350;28;20482;-69
2021/09/08 02:40:01;;;;;;;5.20;3.23;;;;;;;11.36;100.00;101777.09;5053052;28;20939;-69
2021/09/08 02:42:27;;;;;;;5.30;3.53;;;;;;;11.34;100.00;101781.19;5053273;28;20442;-69
2021/09/08 02:44:54;;;;;;;5.67;3.27;;;;;;;11.25;100.00;101777.44;5053270;28;20447;-68
2021/09/08 02:47:20;;;;;;;8.27;3.67;;;;;;;11.27;100.00;101776.03;5053188;28;20465;-69
2021/09/08 02:49:48;;;;;;;5.93;4.17;;;;;;;11.32;100.00;101769.78;5053206;28;20443;-69
2021/09/08 02:52:14;;;;;;;9.70;3.23;;;;;;;11.27;100.00;101765.19;5053212;28;20442;-69
2021/09/08 02:54:41;;;;;;;4.87;3.03;;;;;;;11.27;100.00;101770.63;5053190;28;20443;-69
2021/09/08 02:57:07;;;;;;;6.80;4.20;;;;;;;11.29;100.00;101760.31;5052645;28;20486;-70
2021/09/08 02:59:33;;;;;;;3.80;2.83;;;;;;;11.32;100.00;101761.66;5053345;28;20524;-70
2021/09/08 03:02:00;;;;;;;4.70;2.93;;;;;;;11.16;99.81;101760.91;5053044;28;20445;-69
2021/09/08 03:04:27;;;;;;;6.37;3.40;;;;;;;11.03;100.00;101753.34;5053002;28;20443;-68
2021/09/08 03:06:56;;;;;;;5.60;3.83;;;;;;;10.88;99.55;101758.78;5052668;28;20478;-69
2021/09/08 03:09:23;;;;;;;6.57;3.70;;;;;;;10.90;99.12;101756.63;5053010;28;20476;-69
2021/09/08 03:11:49;;;;;;;4.67;3.50;;;;;;;10.83;99.37;101760.41;5053046;28;20437;-70
2021/09/08 03:14:16;;;;;;;4.47;3.30;;;;;;;10.87;100.00;101763.41;5053014;28;20442;-69
2021/09/08 03:16:42;;;;;;;6.63;4.10;;;;;;;10.95;100.00;101757.44;5052487;28;21014;-69
2021/09/08 03:19:09;;;;;;;4.33;3.33;;;;;;;10.98;100.00;101756.06;5052916;28;20442;-68
2021/09/08 03:21:35;;;;;;;5.37;3.90;;;;;;;10.93;100.00;101759.59;5052968;28;20442;-69
2021/09/08 03:24:03;;;;;;;6.33;3.77;;;;;;;11.00;100.00;101765.53;5052867;28;20438;-69
2021/09/08 03:26:30;;;;;;;6.00;4.43;;;;;;;11.00;100.00;101760.13;5052752;28;20482;-69
2021/09/08 03:28:56;;;;;;;5.33;4.00;;;;;;;11.00;100.00;101759.31;5052568;28;20438;-69
2021/09/08 03:31:22;;;;;;;4.43;3.03;;;;;;;10.98;100.00;101756.88;5052499;28;20826;-69
2021/09/08 03:33:49;;;;;;;6.10;3.40;;;;;;;10.86;100.00;101759.06;5052386;28;20442;-69
2021/09/08 03:36:15;;;;;;;5.40;3.70;;;;;;;10.86;100.00;101764.50;5052584;28;20489;-70
2021/09/08 03:38:42;;;;;;;12.27;4.17;;;;;;;10.93;100.00;101758.78;5052753;28;20450;-68
2021/09/08 03:41:09;;;;;;;7.47;4.20;;;;;;;11.03;100.00;101758.78;5052706;28;20446;-68
2021/09/08 03:43:36;;;;;;;5.50;3.73;;;;;;;11.12;100.00;101762.53;5052737;28;20790;-68
2021/09/08 03:46:05;;;;;;;4.07;2.90;;;;;;;11.13;100.00;101766.88;5056364;28;21089;-71
2021/09/08 03:48:31;;;;;;;4.17;2.60;;;;;;;11.18;100.00;101757.91;5056465;28;20503;-69
2021/09/08 03:50:58;;;;;;;12.07;2.90;;;;;;;11.11;100.00;101758.19;5056448;28;20442;-69
2021/09/08 03:53:24;;;;;;;6.00;3.77;;;;;;;11.00;100.00;101759.31;5056456;28;20449;-69
2021/09/08 03:55:51;;;;;;;5.70;3.07;;;;;;;10.97;100.00;101757.16;5056321;28;20513;-69
2021/09/08 03:58:18;;;;;;;6.20;4.80;;;;;;;11.01;100.00;101755.50;5056270;28;20565;-69
2021/09/08 04:00:45;;;;;;;6.20;3.80;;;;;;;10.79;99.33;101751.22;5056541;28;20814;-69
2021/09/08 04:03:11;;;;;;;7.20;3.10;;;;;;;10.69;99.25;101750.44;5056364;28;20445;-68
2021/09/08 04:05:38;;;;;;;5.13;3.20;;;;;;;10.69;99.14;101759.38;5056107;28;20473;-69
2021/09/08 04:08:04;;;;;;;10.47;4.80;;;;;;;10.63;99.21;101757.75;5056297;28;20414;-69
2021/09/08 04:10:31;;;;;;;5.40;3.53;;;;;;;10.50;100.00;101761.00;5056248;28;20827;-69
2021/09/08 04:12:57;;;;;;;12.73;4.40;;;;;;;10.61;100.00;101751.78;5056185;28;20442;-69
2021/09/08 04:15:25;;;;;;;5.07;3.77;;;;;;;10.75;100.00;101747.41;5056017;28;20473;-69
2021/09/08 04:17:51;;;;;;;3.83;2.50;;;;;;;10.74;100.00;101750.41;5055682;28;20866;-70
2021/09/08 04:20:18;;;;;;;3.73;3.00;;;;;;;10.78;100.00;101749.59;5056006;28;20450;-71
2021/09/08 04:22:44;;;;;;;3.30;2.80;;;;;;;10.82;100.00;101755.28;5056022;28;20450;-67
2021/09/08 04:25:11;;;;;;;5.00;3.33;;;;;;;10.74;100.00;101755.84;5055807;28;20445;-69
2021/09/08 04:27:38;;;;;;;4.80;3.30;;;;;;;10.67;100.00;101749.88;5055548;28;20438;-69
2021/09/08 04:30:05;;;;;;;7.37;4.17;;;;;;;10.75;100.00;101746.63;5055835;28;20441;-69
2021/09/08 04:32:33;;;;;;;4.00;3.60;;;;;;;10.71;100.00;101751.75;5055736;28;20951;-70
2021/09/08 04:35:00;;;;;;;10.40;4.70;;;;;;;10.71;100.00;101745.53;5055666;28;20438;-71
2021/09/08 04:37:26;;;;;;;2.70;2.10;;;;;;;10.71;100.00;101748.25;5055604;28;20540;-70
2021/09/08 04:39:52;;;;;;;4.03;3.00;;;;;;;10.71;100.00;101745.53;5055674;28;20450;-69
2021/09/08 04:42:19;;;;;;;4.80;3.50;;;;;;;10.69;100.00;101748.53;5055182;28;20943;-69
2021/09/08 04:44:46;;;;;;;3.67;3.07;;;;;;;10.70;100.00;101739.31;5055249;28;20790;-69
2021/09/08 04:47:12;;;;;;;8.23;5.10;;;;;;;10.75;100.00;101741.19;5055295;28;20531;-69
2021/09/08 04:49:40;;;;;;;3.73;2.43;;;;;;;10.90;100.00;101738.47;5054847;28;20952;-69
2021/09/08 04:52:06;;;;;;;5.50;3.43;;;;;;;10.99;100.00;101741.44;5055248;28;20445;-71
2021/09/08 04:54:33;;;;;;;4.63;3.40;;;;;;;11.06;100.00;101731.09;5054977;28;20430;-69
2021/09/08 04:56:59;;;;;;;5.27;2.93;;;;;;;11.00;100.00;101733.00;5055177;28;20492;-69
2021/09/08 04:59:25;;;;;;;5.47;4.07;;;;;;;10.84;100.00;101747.69;5055298;28;20865;-70
2021/09/08 05:01:52;;;;;;;5.27;3.07;;;;;;;10.67;100.00;101739.03;5054974;28;20943;-69
2021/09/08 05:04:18;;;;;;;4.10;3.70;;;;;;;10.64;100.00;101736.88;5054854;28;20466;-69
2021/09/08 05:06:46;;;;;;;5.00;2.57;;;;;;;10.68;100.00;101738.78;5054768;28;20481;-70
2021/09/08 05:09:12;;;;;;;7.00;4.17;;;;;;;10.89;100.00;101736.00;5055129;28;20438;-70
2021/09/08 05:11:39;;;;;;;6.00;2.97;;;;;;;10.96;100.00;101737.34;5055015;28;20445;-69
2021/09/08 05:14:05;;;;;;;6.23;3.60;;;;;;;10.82;100.00;101737.13;5054723;28;20426;-69
2021/09/08 05:16:32;;;;;;;5.90;4.17;;;;;;;10.84;100.00;101731.41;5054823;28;20470;-68
2021/09/08 05:18:58;;;;;;;3.93;2.97;;;;;;;11.06;100.00;101745.47;5054911;28;20457;-70
2021/09/08 05:21:25;;;;;;;4.53;2.80;;;;;;;11.20;100.00;101731.31;5054511;28;20805;-69
2021/09/08 05:23:53;;;;;;;8.13;5.20;;;;;;;11.18;100.00;101739.72;5054866;28;20442;-69
2021/09/08 05:26:19;;;;;;;3.20;2.30;;;;;;;11.25;100.00;101742.16;5054311;28;20842;-69
2021/09/08 05:28:46;;;;;;;7.20;4.13;;;;;;;11.21;100.00;101739.19;5054872;28;20431;-69
2021/09/08 05:31:12;;;;;;;4.90;3.37;;;;;;;11.28;100.00;101739.69;5054350;28;20943;-68
2021/09/08 05:33:39;;;;;;;5.30;4.13;;;;;;;11.31;100.00;101739.16;5054612;28;20438;-69
2021/09/08 05:36:06;;;;;;;4.40;3.27;;;;;;;11.31;100.00;101738.34;5054301;28;20458;-72
2021/09/08 05:38:32;;;;;;;4.13;3.43;;;;;;;11.34;100.00;101738.59;5054026;28;20484;-69
2021/09/08 05:41:02;;;;;;;6.70;3.77;;;;;;;11.42;100.00;101736.38;5054471;28;20438;-71
2021/09/08 05:43:28;;;;;;;10.37;4.83;;;;;;;11.43;100.00;101741.56;5054390;28;20442;-71
2021/09/08 05:45:55;;;;;;;4.90;3.20;;;;;;;11.45;100.00;101743.97;5054399;28;20463;-70
2021/09/08 05:48:21;;;;;;;6.40;4.03;;;;;;;11.43;100.00;101733.41;5054372;28;20444;-69
2021/09/08 05:50:48;;;;;;;8.77;4.17;;;;;;;11.57;100.00;101739.03;5054309;28;20450;-69
2021/09/08 05:53:14;;;;;;;4.80;3.33;;;;;;;11.68;100.00;101740.59;5054002;28;20434;-68
2021/09/08 05:55:41;;;;;;;5.97;3.67;;;;;;;11.68;100.00;101743.31;5054238;28;20556;-70
2021/09/08 05:58:09;;;;;;;6.37;3.33;;;;;;;11.74;100.00;101736.78;5054097;28;20485;-68
2021/09/08 06:00:35;;;;;;;5.27;3.63;;;;;;;11.84;100.00;101742.16;5054391;28;20438;-70
2021/09/08 06:03:02;;;;;;;5.23;3.20;;;;;;;12.02;100.00;101740.69;5054085;28;20449;-71
2021/09/08 06:05:34;;;;;;;3.50;3.20;;;;;;;12.13;100.00;101741.44;5054927;28;20517;-68
2021/09/08 06:08:00;;;;;;;7.13;4.30;;;;;;;12.23;100.00;101744.09;5052953;28;20457;-71
2021/09/08 06:10:27;;;;;;;4.50;2.90;;;;;;;12.41;100.00;101744.50;5053872;28;20442;-69
2021/09/08 06:12:53;;;;;;;6.73;4.30;;;;;;;12.52;100.00;101735.13;5053956;28;20465;-69
2021/09/08 06:15:21;;;;;;;7.80;3.63;;;;;;;12.70;100.00;101750.72;5053712;28;20469;-70
2021/09/08 06:17:48;;;;;;;6.53;3.77;;;;;;;12.88;100.00;101743.75;5053752;28;20486;-69
2021/09/08 06:20:15;;;;;;;7.90;3.60;;;;;;;12.98;100.00;101737.44;5053467;28;20437;-69
2021/09/08 06:22:42;;;;;;;6.30;3.40;;;;;;;13.14;100.00;101747.81;5053414;28;20936;-69
2021/09/08 06:25:09;;;;;;;14.60;5.13;;;;;;;13.27;100.00;101740.91;5053608;28;20441;-71
2021/09/08 06:27:36;;;;;;;8.40;4.40;;;;;;;13.37;100.00;101740.81;5053636;28;20441;-71
2021/09/08 06:30:04;;;;;;;7.97;3.20;;;;;;;13.49;100.00;101742.28;5053615;28;20442;-71
2021/09/08 06:32:32;;;;;;;5.50;3.70;;;;;;;13.61;100.00;101746.19;5053559;28;20442;-69
2021/09/08 06:34:58;;;;;;;7.63;5.50;;;;;;;13.74;100.00;101736.50;5053475;28;20446;-70
2021/09/08 06:37:24;;;;;;;10.03;5.73;;;;;;;13.88;100.00;101733.84;5053356;28;20485;-70
2021/09/08 06:39:51;;;;;;;8.10;5.53;;;;;;;14.03;100.00;101735.53;5053449;28;20453;-70
2021/09/08 06:42:17;;;;;;;13.10;6.37;;;;;;;14.17;100.00;101736.41;5053387;28;20438;-71
2021/09/08 06:44:44;;;;;;;14.00;8.80;;;;;;;14.31;100.00;101737.28;5053359;28;20442;-69
2021/09/08 06:47:10;;;;;;;16.17;10.10;;;;;;;14.44;100.00;101729.44;5053175;28;20466;-69
2021/09/08 06:49:38;;;;;;;13.03;7.30;;;;;;;14.56;100.00;101727.06;5053228;28;20438;-69
2021/09/08 06:52:05;;;;;;;8.10;5.20;;;;;;;14.68;100.00;101735.56;5053283;28;20450;-70
2021/09/08 06:54:31;;;;;;;14.63;7.70;;;;;;;14.83;100.00;101729.84;5053223;28;20450;-69
2021/09/08 06:56:58;;;;;;;10.43;5.70;;;;;;;14.95;100.00;101723.88;5053058;28;20823;-69
2021/09/08 06:59:24;;;;;;;12.73;6.77;;;;;;;15.08;100.00;101722.25;5053254;28;20453;-74
2021/09/08 07:01:51;;;;;;;19.30;10.70;;;;;;;15.20;100.00;101719.84;5053092;28;20525;-72
2021/09/08 07:04:17;;;;;;;15.67;7.87;;;;;;;15.33;100.00;101721.75;5053026;28;20446;-71
2021/09/08 07:06:45;;;;;;;13.20;8.00;;;;;;;15.45;100.00;101726.72;5052645;28;20470;-70
2021/09/08 07:09:11;;;;;;;15.43;9.40;;;;;;;15.57;100.00;101726.16;5052952;28;20450;-69
2021/09/08 07:11:38;;;;;;;8.40;7.13;;;;;;;15.67;100.00;101723.25;5053025;28;20453;-70
2021/09/08 07:14:04;;;;;;;11.33;8.33;;;;;;;15.79;100.00;101720.78;5053077;28;20470;-70
2021/09/08 07:16:31;;;;;;;14.10;8.07;;;;;;;15.89;100.00;101722.47;5052645;28;21006;-70
2021/09/08 07:18:57;;;;;;;8.83;6.60;;;;;;;16.02;100.00;101723.53;5055234;28;20485;-70
2021/09/08 07:21:24;;;;;;;17.20;7.83;;;;;;;16.15;100.00;101728.13;5057087;28;20529;-71
2021/09/08 07:23:52;;;;;;;13.50;8.33;;;;;;;16.26;100.00;101729.50;5057142;28;20465;-68
2021/09/08 07:26:18;;;;;;;13.20;8.40;;;;;;;16.37;100.00;101727.31;5056925;28;20462;-71
2021/09/08 07:28:45;;;;;;;10.37;7.10;;;;;;;16.47;100.00;101729.81;5056952;28;20469;-69
2021/09/08 07:31:11;;;;;;;17.83;11.27;;;;;;;16.58;100.00;101733.88;5056957;28;20809;-70
2021/09/08 07:33:38;;;;;;;15.87;9.13;;;;;;;16.67;100.00;101723.00;5056656;28;20433;-69
2021/09/08 07:36:04;;;;;;;16.60;9.93;;;;;;;16.80;100.00;101722.13;5056727;28;20462;-71
2021/09/08 07:38:31;;;;;;;16.20;7.97;;;;;;;16.91;100.00;101728.13;5056829;28;20482;-70
2021/09/08 07:40:59;;;;;;;28.60;7.60;;;;;;;16.99;100.00;101724.59;5056493;28;20442;-70
2021/09/08 07:43:25;;;;;;;14.87;8.47;;;;;;;17.04;100.00;101726.41;5056579;28;20442;-70
2021/09/08 07:45:52;;;;;;;15.83;9.20;;;;;;;17.13;100.00;101725.31;5056695;28;20465;-70
2021/09/08 07:48:20;;;;;;;17.17;9.03;;;;;;;17.24;100.00;101720.34;5056627;28;20438;-71
2021/09/08 07:50:47;;;;;;;13.47;7.97;;;;;;;17.36;100.00;101717.00;5056643;28;20434;-70
2021/09/08 07:53:14;;;;;;;16.57;9.07;;;;;;;17.48;100.00;101719.09;5056597;28;20457;-70
2021/09/08 07:55:40;;;;;;;13.50;7.77;;;;;;;17.56;100.00;101712.84;5056119;28;20454;-70
2021/09/08 07:58:08;;;;;;;9.10;6.27;;;;;;;17.66;100.00;101718.00;5056406;28;20489;-71
2021/09/08 08:00:35;;;;;;;16.20;7.70;;;;;;;17.71;100.00;101722.50;5056664;28;20464;-70
2021/09/08 08:03:02;;;;;;;15.50;8.13;;;;;;;17.78;100.00;101715.47;5056336;28;20442;-71
2021/09/08 08:05:30;;;;;;;10.27;5.90;;;;;;;17.88;100.00;101709.69;5055805;28;20982;-68
2021/09/08 08:07:57;;;;;;;9.93;6.20;;;;;;;17.99;100.00;101717.56;5056403;28;20422;-69
2021/09/08 08:10:23;;;;;;;14.33;8.13;;;;;;;18.07;99.32;101708.53;5056223;28;20446;-70
2021/09/08 08:12:49;;;;;;;10.63;6.90;;;;;;;18.18;97.65;101709.78;5056206;28;20438;-68
2021/09/08 08:15:18;;;;;;;17.77;9.73;;;;;;;18.22;95.94;101710.75;5056029;28;20438;-73
2021/09/08 08:17:44;;;;;;;17.33;7.97;;;;;;;18.29;94.81;101705.59;5055928;28;20998;-72
2021/09/08 08:20:14;;;;;;;10.90;6.20;;;;;;;18.37;92.95;101706.69;5056213;28;20442;-68
2021/09/08 08:22:41;;;;;;;11.67;6.80;;;;;;;18.46;91.73;101710.25;5056020;28;20454;-70
2021/09/08 08:25:10;;;;;;;11.37;6.40;;;;;;;18.57;91.97;101713.44;5055865;28;20442;-71
2021/09/08 08:27:37;;;;;;;10.53;6.37;;;;;;;18.72;90.35;101701.13;5055940;28;20442;-70
2021/09/08 08:30:04;;;;;;;8.90;4.90;;;;;;;18.87;88.72;101701.41;5054814;28;20939;-72
2021/09/08 08:32:32;;;;;;;13.70;5.70;;;;;;;18.98;88.39;101703.78;5055472;28;20952;-70
2021/09/08 08:34:59;;;;;;;9.73;5.93;;;;;;;19.07;88.46;101707.28;5055727;28;20450;-72
2021/09/08 08:37:26;;;;;;;10.23;4.83;;;;;;;19.13;87.74;101712.25;5055743;28;20450;-72
2021/09/08 08:39:52;;;;;;;9.43;5.87;;;;;;;19.23;86.37;101715.78;5055290;28;20999;-71
2021/09/08 08:42:22;;;;;;;11.43;6.67;;;;;;;19.39;83.55;101714.06;5055635;28;20442;-70
2021/09/08 08:44:50;;;;;;;13.53;6.03;;;;;;;19.55;83.40;101706.81;5055627;28;20449;-71
2021/09/08 08:47:17;;;;;;;9.83;5.83;;;;;;;19.63;83.96;101699.69;5055455;28;20466;-71
2021/09/08 08:49:45;;;;;;;10.93;6.20;;;;;;;19.75;83.09;101705.25;5055322;28;20939;-71
2021/09/08 08:52:12;;;;;;;8.33;4.50;;;;;;;19.86;80.18;101703.69;5055119;28;20458;-71
2021/09/08 08:54:39;;;;;;;10.43;5.50;;;;;;;19.99;78.00;101703.75;5055413;28;20861;-71
2021/09/08 08:57:08;;;;;;;9.70;4.93;;;;;;;20.13;77.18;101704.25;5055216;28;20466;-72
2021/09/08 08:59:36;;;;;;;7.63;4.43;;;;;;;20.27;76.43;101709.47;5054941;28;21026;-72
2021/09/08 09:02:17;;;;;;;9.23;4.50;;;;;;;20.52;76.06;101710.38;5055225;28;20457;-72
2021/09/08 09:04:45;;;;;;;8.07;4.60;;;;;;;20.69;73.79;101704.66;5055305;28;20915;-70
2021/09/08 09:07:22;;;;;;;8.90;5.07;;;;;;;20.85;72.10;101702.03;5054694;28;20474;-72
2021/09/08 09:09:51;;;;;;;11.43;4.90;;;;;;;20.84;75.00;101701.22;5055219;28;20430;-72
2021/09/08 09:12:17;;;;;;;8.40;4.90;;;;;;;20.78;78.72;101702.59;5055034;28;20443;-72
2021/09/08 09:14:44;;;;;;;6.73;3.73;;;;;;;20.80;77.19;101699.50;5055082;28;20450;-71
2021/09/08 09:17:13;;;;;;;6.70;4.30;;;;;;;20.86;75.36;101692.63;5054959;28;20462;-72
2021/09/08 09:19:47;;;;;;;8.40;5.00;;;;;;;20.99;73.13;101690.69;5055001;28;20520;-72
2021/09/08 09:22:13;;;;;;;6.97;4.40;;;;;;;20.99;76.31;101693.44;5054973;28;20426;-71
2021/09/08 09:24:41;;;;;;;9.17;4.70;;;;;;;21.07;76.26;101695.25;5054868;28;20446;-71
2021/09/08 09:27:11;;;;;;;5.97;4.43;;;;;;;21.08;75.41;101685.88;5054793;28;20462;-73
2021/09/08 09:29:42;;;;;;;9.93;4.20;;;;;;;21.14;75.25;101684.47;5054487;28;20818;-72
2021/09/08 09:32:11;;;;;;;6.40;3.77;;;;;;;21.18;74.71;101682.63;5054733;28;20430;-72
2021/09/08 09:34:40;;;;;;;9.17;4.27;;;;;;;21.20;75.61;101682.28;5054344;28;20959;-72
2021/09/08 09:37:10;;;;;;;7.23;4.90;;;;;;;21.25;75.68;101682.88;5054587;28;20461;-72
2021/09/08 09:39:37;;;;;;;8.03;4.70;;;;;;;21.31;74.04;101681.50;5054453;28;20478;-72
2021/09/08 09:42:08;;;;;;;6.33;4.17;;;;;;;21.51;68.53;101679.72;5053081;28;20442;-72
2021/09/08 09:44:35;;;;;;;5.63;3.87;;;;;;;21.62;69.58;101678.09;5054513;28;20427;-72
2021/09/08 09:47:02;;;;;;;7.93;4.73;;;;;;;21.80;67.80;101673.09;5054340;28;20462;-72
2021/09/08 09:49:31;;;;;;;6.87;4.57;;;;;;;21.96;68.59;101672.31;5054261;28;20438;-72
2021/09/08 09:51:58;;;;;;;6.40;3.50;;;;;;;22.09;68.10;101665.59;5053989;28;20828;-72
2021/09/08 09:54:26;;;;;;;9.63;4.27;;;;;;;22.11;68.88;101669.59;5054265;28;20443;-72
2021/09/08 09:56:54;;;;;;;8.20;4.33;;;;;;;22.17;68.42;101661.91;5053916;28;20462;-71
2021/09/08 09:59:21;;;;;;;8.57;4.23;;;;;;;22.24;70.13;101653.81;5054173;28;20539;-72
2021/09/08 10:01:48;;;;;;;8.53;4.23;;;;;;;22.26;69.03;101659.75;5054629;28;20478;-72
2021/09/08 10:04:14;;;;;;;6.70;3.67;;;;;;;22.32;68.46;101654.81;5054039;28;20439;-71
2021/09/08 10:06:43;;;;;;;7.00;4.87;;;;;;;22.36;64.72;101647.41;5053781;28;20477;-71
2021/09/08 10:09:13;;;;;;;15.73;4.00;;;;;;;22.51;66.16;101654.09;5053707;28;20462;-72
2021/09/08 10:11:45;;;;;;;5.90;3.83;;;;;;;22.65;65.08;101649.72;5054024;28;20426;-71
2021/09/08 10:14:16;;;;;;;6.50;4.40;;;;;;;22.66;66.19;101647.75;5053932;28;20430;-71
2021/09/08 10:16:46;;;;;;;6.37;3.83;;;;;;;22.72;66.49;101638.06;5053816;28;20473;-71
2021/09/08 10:19:17;;;;;;;8.23;4.90;;;;;;;22.85;62.96;101638.75;5053805;28;20498;-71
2021/09/08 10:21:46;;;;;;;5.73;3.93;;;;;;;22.92;63.76;101634.22;5053967;28;20422;-71
2021/09/08 10:24:12;;;;;;;4.80;3.20;;;;;;;23.02;63.10;101638.41;5053845;28;20480;-71
2021/09/08 10:26:39;;;;;;;7.60;4.23;;;;;;;23.03;64.39;101628.94;5054626;28;20466;-72
2021/09/08 10:29:08;;;;;;;11.07;5.00;;;;;;;23.03;65.31;101626.19;5054269;28;20445;-71
2021/09/08 10:31:36;;;;;;;7.77;4.50;;;;;;;23.15;63.61;101623.28;5053879;28;20445;-71
2021/09/08 10:34:05;;;;;;;9.97;5.27;;;;;;;23.25;60.08;101632.19;5053565;28;20472;-72
2021/09/08 10:36:33;;;;;;;6.17;3.80;;;;;;;23.25;65.54;101624.69;5053506;28;20474;-72
2021/09/08 10:39:05;;;;;;;5.90;4.00;;;;;;;23.38;65.08;101623.38;5053322;28;20540;-72
2021/09/08 10:41:39;;;;;;;5.43;4.00;;;;;;;23.52;65.56;101619.31;5054018;28;20449;-71
2021/09/08 10:44:07;;;;;;;5.50;4.13;;;;;;;23.62;61.84;101618.72;5054275;28;20787;-71
2021/09/08 10:46:49;;;;;;;5.97;3.83;;;;;;;23.75;62.09;101608.34;5054139;28;20481;-71
2021/09/08 10:49:48;;;;;;;6.03;4.03;;;;;;;23.76;65.75;101610.72;5054310;28;20433;-71
2021/09/08 10:52:39;;;;;;;7.50;4.53;;;;;;;23.79;63.98;101600.91;5053556;28;20422;-72
2021/09/08 10:55:27;;;;;;;7.37;4.37;;;;;;;23.89;63.57;101603.06;5053126;28;20442;-72
2021/09/08 10:57:59;;;;;;;7.50;4.60;;;;;;;23.91;61.62;101592.44;5053230;28;20422;-72
2021/09/08 11:00:38;;;;;;;11.33;5.60;;;;;;;24.04;62.23;101591.09;5052759;28;20860;-71
2021/09/08 11:03:07;;;;;;;5.63;3.47;;;;;;;24.23;61.37;101603.28;5053202;28;20415;-72
2021/09/08 11:05:50;;;;;;;9.50;5.03;;;;;;;24.46;58.53;101603.28;5053326;28;20466;-71
2021/09/08 11:08:22;;;;;;;6.30;4.10;;;;;;;24.63;59.92;101600.00;5052641;28;20458;-73
2021/09/08 11:10:49;;;;;;;19.03;5.10;;;;;;;24.64;56.01;101602.38;5052449;28;20488;-71
2021/09/08 11:13:25;;;;;;;6.70;4.33;;;;;;;24.88;59.19;101598.41;5053139;28;20442;-71
2021/09/08 11:15:53;;;;;;;5.90;4.30;;;;;;;25.55;59.32;101588.59;5052971;28;20527;-72
2021/09/08 11:18:19;;;;;;;6.80;4.30;;;;;;;26.44;55.61;101594.25;5053140;28;20462;-71